Aérodrome :
LOGIN :

S'inscrire | Disclaimer

   EN    FR    IT 

 










Légende :    VFR   VFR Marginal   IFR   IFR Intensif   IFR Très Intensif
Visi : 
Plafond : 
>= 8 km
>= 3000ft
5 à 8 km
1000 à 3000 ft
1500m à 5 km
500 à 1000 ft
800 à 1500m
200 à 500 ft
< 800m
< 200 ft
Symboles :   Orages  Brouillard  Fortes neiges  Fortes précipitations  Vent > 20 kt
SIGMETs :   Divers  Orages  Givrage  Turbulence  Onde Orograph.  Cendres Volcan.






- Altitude de l'aérodrome : 70 ft
- Code IATA : LEI


LEAM - Almeria

DERNIER METAR :
  • 072130Z 34004KT CAVOK 12/11 Q1025

METARs EXPIRÉS :
  • 072100Z 02004KT CAVOK 13/11 Q1024
  • 072030Z 02003KT CAVOK 13/11 Q1024
  • 072000Z 03003KT CAVOK 13/11 Q1024
  • 071930Z VRB01KT CAVOK 13/12 Q1024
  • 071900Z VRB02KT CAVOK 15/12 Q1024

TAF TAF LEAM
Valide du 07 à 21h jusqu'au 08 à 21h UTC


072000Z 0721/0821 35005KT 9999 FEW020 TX18/0812Z TN10/0806Z
BECMG 0809/0811 23014KT
BECMG 0819/0821 33005KT



MET'MAP, la Météo Aéronautique d'un coup d'oeil ! - Copyright ORBIFLY Décembre 2007 - Disclaimer

ORBIFLY MET'MAP TEAM :

Programmation & Développement : Alexandra Zaïnal
Sur une idée originale de : Baudouin d'Aumeries
Assistance à la programmation : Marc-Olivier Méhu
Soutien technique & logistique : Manuel Goepfert

Contact : metmap@orbifly.com




SOURCES & CREDITS :

   NOAA